sensor_id;sensor_type;location;lat;lon;timestamp;pressure;altitude;pressure_sealevel;temperature;humidity
38466;BME280;24244;51.950;5.902;2023-04-06T00:00:36;101770.44;;;4.81;59.78
38466;BME280;24244;51.950;5.902;2023-04-06T00:03:22;101775.69;;;4.81;59.83
38466;BME280;24244;51.950;5.902;2023-04-06T00:05:49;101772.34;;;4.79;59.94
38466;BME280;24244;51.950;5.902;2023-04-06T00:08:16;101772.22;;;4.81;59.73
38466;BME280;24244;51.950;5.902;2023-04-06T00:10:43;101766.22;;;4.79;59.78
38466;BME280;24244;51.950;5.902;2023-04-06T00:13:11;101761.81;;;4.79;59.60
38466;BME280;24244;51.950;5.902;2023-04-06T00:15:37;101766.34;;;4.77;59.64
38466;BME280;24244;51.950;5.902;2023-04-06T00:18:04;101763.72;;;4.77;60.17
38466;BME280;24244;51.950;5.902;2023-04-06T00:20:31;101764.69;;;4.76;59.86
38466;BME280;24244;51.950;5.902;2023-04-06T00:22:58;101758.44;;;4.77;59.66
38466;BME280;24244;51.950;5.902;2023-04-06T00:25:25;101751.66;;;4.75;60.06
38466;BME280;24244;51.950;5.902;2023-04-06T00:27:52;101751.78;;;4.73;59.96
38466;BME280;24244;51.950;5.902;2023-04-06T00:30:20;101752.00;;;4.70;59.77
38466;BME280;24244;51.950;5.902;2023-04-06T00:32:47;101746.06;;;4.68;60.04
38466;BME280;24244;51.950;5.902;2023-04-06T00:35:13;101743.53;;;4.66;59.93
38466;BME280;24244;51.950;5.902;2023-04-06T00:37:41;101740.91;;;4.66;60.02
38466;BME280;24244;51.950;5.902;2023-04-06T00:40:09;101737.53;;;4.64;60.15
38466;BME280;24244;51.950;5.902;2023-04-06T00:42:36;101742.25;;;4.61;59.93
38466;BME280;24244;51.950;5.902;2023-04-06T00:45:03;101736.25;;;4.59;60.12
38466;BME280;24244;51.950;5.902;2023-04-06T00:47:32;101737.19;;;4.58;60.16
38466;BME280;24244;51.950;5.902;2023-04-06T00:49:59;101735.06;;;4.52;60.23
38466;BME280;24244;51.950;5.902;2023-04-06T00:52:26;101730.88;;;4.49;60.59
38466;BME280;24244;51.950;5.902;2023-04-06T00:54:53;101731.13;;;4.46;60.21
38466;BME280;24244;51.950;5.902;2023-04-06T00:57:20;101732.44;;;4.41;60.70
38466;BME280;24244;51.950;5.902;2023-04-06T00:59:47;101732.81;;;4.36;60.61
38466;BME280;24244;51.950;5.902;2023-04-06T01:02:15;101722.56;;;4.33;60.42
38466;BME280;24244;51.950;5.902;2023-04-06T01:07:28;101715.13;;;4.27;61.12
38466;BME280;24244;51.950;5.902;2023-04-06T01:09:55;101710.97;;;4.24;61.09
38466;BME280;24244;51.950;5.902;2023-04-06T01:12:22;101713.69;;;4.23;60.97
38466;BME280;24244;51.950;5.902;2023-04-06T01:14:49;101706.19;;;4.18;61.41
38466;BME280;24244;51.950;5.902;2023-04-06T01:17:16;101707.25;;;4.16;60.95
38466;BME280;24244;51.950;5.902;2023-04-06T01:19:42;101698.91;;;4.11;61.18
38466;BME280;24244;51.950;5.902;2023-04-06T01:22:15;101703.31;;;4.10;61.60
38466;BME280;24244;51.950;5.902;2023-04-06T01:24:43;101695.31;;;4.12;61.23
38466;BME280;24244;51.950;5.902;2023-04-06T01:27:10;101699.75;;;4.11;61.19
38466;BME280;24244;51.950;5.902;2023-04-06T01:29:37;101691.97;;;4.10;61.30
38466;BME280;24244;51.950;5.902;2023-04-06T01:32:04;101687.53;;;4.10;61.39
38466;BME280;24244;51.950;5.902;2023-04-06T01:34:31;101688.38;;;4.11;61.21
38466;BME280;24244;51.950;5.902;2023-04-06T01:36:57;101687.53;;;4.10;61.12
38466;BME280;24244;51.950;5.902;2023-04-06T01:39:25;101686.94;;;4.07;61.39
38466;BME280;24244;51.950;5.902;2023-04-06T01:41:52;101676.66;;;4.04;61.23
38466;BME280;24244;51.950;5.902;2023-04-06T01:44:19;101676.91;;;4.01;61.37
38466;BME280;24244;51.950;5.902;2023-04-06T01:46:46;101678.94;;;3.97;61.33
38466;BME280;24244;51.950;5.902;2023-04-06T01:49:13;101667.69;;;3.95;61.90
38466;BME280;24244;51.950;5.902;2023-04-06T01:51:40;101673.91;;;3.94;61.79
38466;BME280;24244;51.950;5.902;2023-04-06T01:54:07;101671.50;;;3.91;61.49
38466;BME280;24244;51.950;5.902;2023-04-06T01:56:35;101672.34;;;3.91;61.88
38466;BME280;24244;51.950;5.902;2023-04-06T01:59:02;101676.19;;;3.87;61.93
38466;BME280;24244;51.950;5.902;2023-04-06T02:01:29;101674.78;;;3.83;61.99
38466;BME280;24244;51.950;5.902;2023-04-06T02:03:56;101666.16;;;3.81;61.89
38466;BME280;24244;51.950;5.902;2023-04-06T02:06:23;101662.69;;;3.81;61.98
38466;BME280;24244;51.950;5.902;2023-04-06T02:08:51;101664.47;;;3.80;62.18
38466;BME280;24244;51.950;5.902;2023-04-06T02:11:19;101666.28;;;3.80;62.06
38466;BME280;24244;51.950;5.902;2023-04-06T02:13:50;101656.72;;;3.79;61.99
38466;BME280;24244;51.950;5.902;2023-04-06T02:16:17;101656.81;;;3.77;62.26
38466;BME280;24244;51.950;5.902;2023-04-06T02:18:49;101656.97;;;3.76;61.99
38466;BME280;24244;51.950;5.902;2023-04-06T02:21:15;101649.53;;;3.70;62.09
38466;BME280;24244;51.950;5.902;2023-04-06T02:23:49;101651.34;;;3.69;62.20
38466;BME280;24244;51.950;5.902;2023-04-06T02:26:16;101641.66;;;3.70;62.45
38466;BME280;24244;51.950;5.902;2023-04-06T02:28:45;101645.25;;;3.69;62.41
38466;BME280;24244;51.950;5.902;2023-04-06T02:31:13;101644.53;;;3.67;62.61
38466;BME280;24244;51.950;5.902;2023-04-06T02:33:42;101643.59;;;3.68;62.45
38466;BME280;24244;51.950;5.902;2023-04-06T02:36:08;101629.72;;;3.66;62.38
38466;BME280;24244;51.950;5.902;2023-04-06T02:38:35;101635.91;;;3.65;62.30
38466;BME280;24244;51.950;5.902;2023-04-06T02:41:05;101629.94;;;3.63;62.32
38466;BME280;24244;51.950;5.902;2023-04-06T02:43:32;101634.25;;;3.64;62.82
38466;BME280;24244;51.950;5.902;2023-04-06T02:45:59;101636.88;;;3.64;62.89
38466;BME280;24244;51.950;5.902;2023-04-06T02:48:28;101634.25;;;3.64;62.83
38466;BME280;24244;51.950;5.902;2023-04-06T02:50:55;101632.56;;;3.63;63.03
38466;BME280;24244;51.950;5.902;2023-04-06T02:53:22;101631.63;;;3.64;62.95
38466;BME280;24244;51.950;5.902;2023-04-06T02:55:48;101630.78;;;3.63;63.12
38466;BME280;24244;51.950;5.902;2023-04-06T02:58:15;101626.50;;;3.62;62.78
38466;BME280;24244;51.950;5.902;2023-04-06T03:00:42;101621.25;;;3.62;62.76
38466;BME280;24244;51.950;5.902;2023-04-06T03:03:12;101619.41;;;3.63;63.17
38466;BME280;24244;51.950;5.902;2023-04-06T03:05:40;101613.22;;;3.64;63.33
38466;BME280;24244;51.950;5.902;2023-04-06T03:08:07;101618.25;;;3.67;62.92
38466;BME280;24244;51.950;5.902;2023-04-06T03:10:34;101622.44;;;3.69;63.15
38466;BME280;24244;51.950;5.902;2023-04-06T03:13:01;101620.50;;;3.71;63.25
38466;BME280;24244;51.950;5.902;2023-04-06T03:19:19;101621.22;;;3.73;63.10
38466;BME280;24244;51.950;5.902;2023-04-06T03:21:47;101614.06;;;3.75;62.98
38466;BME280;24244;51.950;5.902;2023-04-06T03:24:13;101618.38;;;3.76;63.04
38466;BME280;24244;51.950;5.902;2023-04-06T03:26:40;101608.53;;;3.78;63.23
38466;BME280;24244;51.950;5.902;2023-04-06T03:29:08;101608.44;;;3.80;63.26
38466;BME280;24244;51.950;5.902;2023-04-06T03:31:35;101596.94;;;3.81;63.05
38466;BME280;24244;51.950;5.902;2023-04-06T03:34:02;101601.94;;;3.84;63.38
38466;BME280;24244;51.950;5.902;2023-04-06T03:36:29;101600.88;;;3.86;63.37
38466;BME280;24244;51.950;5.902;2023-04-06T03:42:49;101592.88;;;3.88;63.30
38466;BME280;24244;51.950;5.902;2023-04-06T03:45:16;101598.13;;;3.88;62.95
38466;BME280;24244;51.950;5.902;2023-04-06T03:47:43;101590.97;;;3.90;63.42
38466;BME280;24244;51.950;5.902;2023-04-06T03:50:12;101597.75;;;3.92;63.22
38466;BME280;24244;51.950;5.902;2023-04-06T03:52:38;101589.75;;;3.94;62.97
38466;BME280;24244;51.950;5.902;2023-04-06T03:55:06;101588.69;;;3.97;63.05
38466;BME280;24244;51.950;5.902;2023-04-06T03:57:33;101589.53;;;3.97;63.42
38466;BME280;24244;51.950;5.902;2023-04-06T04:00:02;101585.78;;;4.00;63.30
38466;BME280;24244;51.950;5.902;2023-04-06T04:02:30;101589.25;;;4.00;63.16
38466;BME280;24244;51.950;5.902;2023-04-06T04:04:58;101591.03;;;4.00;63.05
38466;BME280;24244;51.950;5.902;2023-04-06T04:07:25;101589.03;;;4.03;63.29
38466;BME280;24244;51.950;5.902;2023-04-06T04:09:52;101589.03;;;4.03;63.15
38466;BME280;24244;51.950;5.902;2023-04-06T04:12:20;101589.97;;;4.02;63.08
38466;BME280;24244;51.950;5.902;2023-04-06T04:14:47;101583.75;;;4.03;63.53
38466;BME280;24244;51.950;5.902;2023-04-06T04:17:15;101586.38;;;4.03;63.33
38466;BME280;24244;51.950;5.902;2023-04-06T04:19:42;101592.50;;;4.04;63.38
38466;BME280;24244;51.950;5.902;2023-04-06T04:22:12;101595.97;;;4.04;63.37
38466;BME280;24244;51.950;5.902;2023-04-06T04:24:39;101596.91;;;4.03;63.61
38466;BME280;24244;51.950;5.902;2023-04-06T04:27:06;101593.19;;;4.06;63.28
38466;BME280;24244;51.950;5.902;2023-04-06T04:29:34;101590.69;;;4.04;63.47
38466;BME280;24244;51.950;5.902;2023-04-06T04:32:00;101594.16;;;4.05;63.54
38466;BME280;24244;51.950;5.902;2023-04-06T04:34:28;101594.84;;;4.07;63.72
38466;BME280;24244;51.950;5.902;2023-04-06T04:36:55;101600.84;;;4.09;63.57
38466;BME280;24244;51.950;5.902;2023-04-06T04:39:24;101599.75;;;4.11;63.31
38466;BME280;24244;51.950;5.902;2023-04-06T04:41:51;101595.19;;;4.13;63.62
38466;BME280;24244;51.950;5.902;2023-04-06T04:44:18;101599.50;;;4.14;63.21
38466;BME280;24244;51.950;5.902;2023-04-06T04:46:44;101601.19;;;4.15;63.58
38466;BME280;24244;51.950;5.902;2023-04-06T04:49:11;101599.25;;;4.17;63.30
38466;BME280;24244;51.950;5.902;2023-04-06T04:51:39;101589.56;;;4.18;63.64
38466;BME280;24244;51.950;5.902;2023-04-06T04:54:06;101586.78;;;4.19;63.66
38466;BME280;24244;51.950;5.902;2023-04-06T04:56:33;101593.72;;;4.20;63.69
38466;BME280;24244;51.950;5.902;2023-04-06T04:59:00;101590.97;;;4.22;63.49
38466;BME280;24244;51.950;5.902;2023-04-06T05:01:27;101588.22;;;4.23;63.71
38466;BME280;24244;51.950;5.902;2023-04-06T05:03:55;101589.06;;;4.24;63.68
38466;BME280;24244;51.950;5.902;2023-04-06T05:06:23;101583.81;;;4.24;63.56
38466;BME280;24244;51.950;5.902;2023-04-06T05:08:54;101583.69;;;4.25;63.53
38466;BME280;24244;51.950;5.902;2023-04-06T05:11:21;101587.97;;;4.26;63.70
38466;BME280;24244;51.950;5.902;2023-04-06T05:13:48;101585.34;;;4.26;63.57
38466;BME280;24244;51.950;5.902;2023-04-06T05:16:15;101583.53;;;4.27;63.71
38466;BME280;24244;51.950;5.902;2023-04-06T05:18:41;101577.22;;;4.29;63.70
38466;BME280;24244;51.950;5.902;2023-04-06T05:21:10;101577.09;;;4.31;63.47
38466;BME280;24244;51.950;5.902;2023-04-06T05:23:37;101579.84;;;4.29;63.59
38466;BME280;24244;51.950;5.902;2023-04-06T05:26:06;101578.03;;;4.30;63.61
38466;BME280;24244;51.950;5.902;2023-04-06T05:28:34;101578.75;;;4.32;63.85
38466;BME280;24244;51.950;5.902;2023-04-06T05:31:01;101584.88;;;4.32;63.65
38466;BME280;24244;51.950;5.902;2023-04-06T05:33:28;101581.00;;;4.37;63.60
38466;BME280;24244;51.950;5.902;2023-04-06T05:35:55;101580.03;;;4.38;63.44
38466;BME280;24244;51.950;5.902;2023-04-06T05:38:22;101576.34;;;4.40;63.62
38466;BME280;24244;51.950;5.902;2023-04-06T05:40:49;101568.28;;;4.42;63.56
38466;BME280;24244;51.950;5.902;2023-04-06T05:43:19;101570.69;;;4.45;63.42
38466;BME280;24244;51.950;5.902;2023-04-06T05:45:48;101577.50;;;4.47;63.61
38466;BME280;24244;51.950;5.902;2023-04-06T05:48:15;101571.25;;;4.48;63.50
38466;BME280;24244;51.950;5.902;2023-04-06T05:50:42;101571.00;;;4.51;63.64
38466;BME280;24244;51.950;5.902;2023-04-06T05:53:09;101557.72;;;4.53;63.38
38466;BME280;24244;51.950;5.902;2023-04-06T05:55:36;101564.50;;;4.55;63.55
38466;BME280;24244;51.950;5.902;2023-04-06T05:58:04;101566.06;;;4.58;63.49
38466;BME280;24244;51.950;5.902;2023-04-06T06:00:33;101570.25;;;4.60;63.67
38466;BME280;24244;51.950;5.902;2023-04-06T06:03:00;101565.56;;;4.64;63.63
38466;BME280;24244;51.950;5.902;2023-04-06T06:05:26;101564.47;;;4.66;63.55
38466;BME280;24244;51.950;5.902;2023-04-06T06:07:55;101566.16;;;4.67;63.75
38466;BME280;24244;51.950;5.902;2023-04-06T06:10:22;101564.91;;;4.71;63.56
38466;BME280;24244;51.950;5.902;2023-04-06T06:12:49;101565.50;;;4.75;63.60
38466;BME280;24244;51.950;5.902;2023-04-06T06:15:16;101551.22;;;4.78;63.30
38466;BME280;24244;51.950;5.902;2023-04-06T06:17:44;101559.72;;;4.81;63.45
38466;BME280;24244;51.950;5.902;2023-04-06T06:20:12;101557.66;;;4.85;63.13
38466;BME280;24244;51.950;5.902;2023-04-06T06:22:39;101558.25;;;4.88;63.28
38466;BME280;24244;51.950;5.902;2023-04-06T06:25:07;101554.25;;;4.94;63.01
38466;BME280;24244;51.950;5.902;2023-04-06T06:27:33;101559.25;;;4.97;63.22
38466;BME280;24244;51.950;5.902;2023-04-06T06:30:01;101556.22;;;5.01;62.98
38466;BME280;24244;51.950;5.902;2023-04-06T06:32:27;101564.69;;;5.05;62.84
38466;BME280;24244;51.950;5.902;2023-04-06T06:34:57;101562.78;;;5.07;63.08
38466;BME280;24244;51.950;5.902;2023-04-06T06:37:25;101556.13;;;5.12;62.98
38466;BME280;24244;51.950;5.902;2023-04-06T06:39:54;101567.13;;;5.18;62.94
38466;BME280;24244;51.950;5.902;2023-04-06T06:42:24;101559.66;;;5.23;62.68
38466;BME280;24244;51.950;5.902;2023-04-06T06:44:51;101552.91;;;5.30;62.63
38466;BME280;24244;51.950;5.902;2023-04-06T06:47:18;101552.34;;;5.36;62.49
38466;BME280;24244;51.950;5.902;2023-04-06T06:49:46;101558.75;;;5.43;62.64
38466;BME280;24244;51.950;5.902;2023-04-06T06:52:15;101548.53;;;5.49;62.48
38466;BME280;24244;51.950;5.902;2023-04-06T06:54:48;101547.84;;;5.57;62.23
38466;BME280;24244;51.950;5.902;2023-04-06T06:57:16;101561.19;;;5.65;62.36
38466;BME280;24244;51.950;5.902;2023-04-06T06:59:43;101554.41;;;5.72;62.02
38466;BME280;24244;51.950;5.902;2023-04-06T07:02:13;101548.59;;;5.78;61.92
38466;BME280;24244;51.950;5.902;2023-04-06T07:04:42;101547.91;;;5.86;62.16
38466;BME280;24244;51.950;5.902;2023-04-06T07:07:14;101538.66;;;5.92;62.02
38466;BME280;24244;51.950;5.902;2023-04-06T07:09:41;101540.72;;;5.98;61.90
38466;BME280;24244;51.950;5.902;2023-04-06T07:12:08;101537.69;;;6.02;61.85
38466;BME280;24244;51.950;5.902;2023-04-06T07:14:35;101544.09;;;6.09;61.68
38466;BME280;24244;51.950;5.902;2023-04-06T07:17:03;101531.31;;;6.14;61.64
38466;BME280;24244;51.950;5.902;2023-04-06T07:19:30;101530.75;;;6.20;61.55
38466;BME280;24244;51.950;5.902;2023-04-06T07:21:59;101533.66;;;6.27;61.56
38466;BME280;24244;51.950;5.902;2023-04-06T07:24:30;101532.28;;;6.33;61.56
38466;BME280;24244;51.950;5.902;2023-04-06T07:26:59;101524.66;;;6.39;61.45
38466;BME280;24244;51.950;5.902;2023-04-06T07:29:29;101524.09;;;6.45;61.32
38466;BME280;24244;51.950;5.902;2023-04-06T07:31:58;101525.31;;;6.51;61.10
38466;BME280;24244;51.950;5.902;2023-04-06T07:34:32;101529.91;;;6.58;61.10
38466;BME280;24244;51.950;5.902;2023-04-06T07:37:00;101534.63;;;6.64;60.84
38466;BME280;24244;51.950;5.902;2023-04-06T07:39:33;101540.03;;;6.73;61.08
38466;BME280;24244;51.950;5.902;2023-04-06T07:42:00;101532.38;;;6.79;60.92
38466;BME280;24244;51.950;5.902;2023-04-06T07:44:28;101531.66;;;6.87;60.74
38466;BME280;24244;51.950;5.902;2023-04-06T07:46:56;101532.75;;;6.94;60.86
38466;BME280;24244;51.950;5.902;2023-04-06T07:49:23;101532.03;;;7.01;60.58
38466;BME280;24244;51.950;5.902;2023-04-06T07:51:50;101528.66;;;7.09;60.83
38466;BME280;24244;51.950;5.902;2023-04-06T07:54:16;101525.44;;;7.15;60.38
38466;BME280;24244;51.950;5.902;2023-04-06T07:56:45;101525.81;;;7.20;60.34
38466;BME280;24244;51.950;5.902;2023-04-06T07:59:12;101529.56;;;7.27;60.36
38466;BME280;24244;51.950;5.902;2023-04-06T08:01:40;101530.94;;;7.31;60.03
38466;BME280;24244;51.950;5.902;2023-04-06T08:04:07;101524.22;;;7.37;60.25
38466;BME280;24244;51.950;5.902;2023-04-06T08:06:34;101521.13;;;7.41;60.31
38466;BME280;24244;51.950;5.902;2023-04-06T08:09:01;101516.22;;;7.46;60.14
38466;BME280;24244;51.950;5.902;2023-04-06T08:11:28;101516.63;;;7.52;59.98
38466;BME280;24244;51.950;5.902;2023-04-06T08:13:56;101517.03;;;7.57;60.13
38466;BME280;24244;51.950;5.902;2023-04-06T08:16:23;101515.59;;;7.62;60.09
38466;BME280;24244;51.950;5.902;2023-04-06T08:18:58;101512.50;;;7.67;59.96
38466;BME280;24244;51.950;5.902;2023-04-06T08:21:25;101512.88;;;7.72;59.85
38466;BME280;24244;51.950;5.902;2023-04-06T08:23:52;101515.91;;;7.77;59.48
38466;BME280;24244;51.950;5.902;2023-04-06T08:26:19;101514.78;;;7.79;59.59
38466;BME280;24244;51.950;5.902;2023-04-06T08:28:46;101513.34;;;7.85;59.49
38466;BME280;24244;51.950;5.902;2023-04-06T08:31:14;101522.50;;;7.91;59.11
38466;BME280;24244;51.950;5.902;2023-04-06T08:33:42;101515.94;;;7.95;59.52
38466;BME280;24244;51.950;5.902;2023-04-06T08:36:10;101515.47;;;7.99;59.47
38466;BME280;24244;51.950;5.902;2023-04-06T08:38:37;101508.88;;;8.03;59.23
38466;BME280;24244;51.950;5.902;2023-04-06T08:41:11;101509.28;;;8.08;59.14
38466;BME280;24244;51.950;5.902;2023-04-06T08:43:42;101515.78;;;8.14;59.29
38466;BME280;24244;51.950;5.902;2023-04-06T08:46:10;101512.53;;;8.20;59.23
38466;BME280;24244;51.950;5.902;2023-04-06T08:48:40;101506.63;;;8.26;59.26
38466;BME280;24244;51.950;5.902;2023-04-06T08:51:08;101508.84;;;8.31;59.18
38466;BME280;24244;51.950;5.902;2023-04-06T08:53:36;101499.59;;;8.35;59.15
38466;BME280;24244;51.950;5.902;2023-04-06T08:56:03;101507.75;;;8.41;58.96
38466;BME280;24244;51.950;5.902;2023-04-06T08:58:32;101509.13;;;8.45;59.20
38466;BME280;24244;51.950;5.902;2023-04-06T09:01:07;101512.16;;;8.50;59.02
38466;BME280;24244;51.950;5.902;2023-04-06T09:03:39;101508.88;;;8.56;58.95
38466;BME280;24244;51.950;5.902;2023-04-06T09:06:08;101506.59;;;8.61;58.86
38466;BME280;24244;51.950;5.902;2023-04-06T09:08:35;101506.97;;;8.67;58.81
38466;BME280;24244;51.950;5.902;2023-04-06T09:11:03;101508.16;;;8.72;58.94
38466;BME280;24244;51.950;5.902;2023-04-06T09:13:30;101509.22;;;8.79;58.94
38466;BME280;24244;51.950;5.902;2023-04-06T09:16:01;101510.25;;;8.86;58.57
38466;BME280;24244;51.950;5.902;2023-04-06T09:18:29;101513.94;;;8.93;58.84
38466;BME280;24244;51.950;5.902;2023-04-06T09:20:59;101498.22;;;9.00;58.62
38466;BME280;24244;51.950;5.902;2023-04-06T09:23:26;101500.25;;;9.06;58.33
38466;BME280;24244;51.950;5.902;2023-04-06T09:26:05;101505.44;;;9.16;58.62
38466;BME280;24244;51.950;5.902;2023-04-06T09:28:44;101505.63;;;9.22;58.21
38466;BME280;24244;51.950;5.902;2023-04-06T09:31:13;101506.66;;;9.29;58.59
38466;BME280;24244;51.950;5.902;2023-04-06T09:33:41;101500.56;;;9.37;58.32
38466;BME280;24244;51.950;5.902;2023-04-06T09:36:10;101498.09;;;9.43;58.00
38466;BME280;24244;51.950;5.902;2023-04-06T09:38:37;101499.94;;;9.51;58.12
38466;BME280;24244;51.950;5.902;2023-04-06T09:41:05;101488.69;;;9.57;58.20
38466;BME280;24244;51.950;5.902;2023-04-06T09:43:32;101495.00;;;9.64;57.94
38466;BME280;24244;51.950;5.902;2023-04-06T09:46:00;101488.03;;;9.71;57.85
38466;BME280;24244;51.950;5.902;2023-04-06T09:48:31;101498.00;;;9.77;57.90
38466;BME280;24244;51.950;5.902;2023-04-06T09:51:03;101493.72;;;9.85;57.76
38466;BME280;24244;51.950;5.902;2023-04-06T09:53:36;101489.41;;;9.92;57.85
38466;BME280;24244;51.950;5.902;2023-04-06T09:56:08;101492.22;;;9.98;57.52
38466;BME280;24244;51.950;5.902;2023-04-06T09:58:40;101489.91;;;10.03;57.78
38466;BME280;24244;51.950;5.902;2023-04-06T10:01:15;101490.91;;;10.10;57.49
38466;BME280;24244;51.950;5.902;2023-04-06T10:03:47;101492.06;;;10.16;57.47
38466;BME280;24244;51.950;5.902;2023-04-06T10:06:20;101491.63;;;10.20;57.38
38466;BME280;24244;51.950;5.902;2023-04-06T10:08:50;101489.28;;;10.26;57.28
38466;BME280;24244;51.950;5.902;2023-04-06T10:11:18;101491.28;;;10.32;57.45
38466;BME280;24244;51.950;5.902;2023-04-06T10:13:47;101491.63;;;10.37;57.24
38466;BME280;24244;51.950;5.902;2023-04-06T10:16:15;101497.41;;;10.40;56.99
38466;BME280;24244;51.950;5.902;2023-04-06T10:18:46;101497.09;;;10.43;56.82
38466;BME280;24244;51.950;5.902;2023-04-06T10:21:16;101498.41;;;10.47;56.96
38466;BME280;24244;51.950;5.902;2023-04-06T10:23:51;101498.09;;;10.50;56.75
38466;BME280;24244;51.950;5.902;2023-04-06T10:26:20;101504.72;;;10.54;56.85
38466;BME280;24244;51.950;5.902;2023-04-06T10:28:49;101502.72;;;10.56;56.84
38466;BME280;24244;51.950;5.902;2023-04-06T10:31:24;101498.09;;;10.58;56.93
38466;BME280;24244;51.950;5.902;2023-04-06T10:33:55;101503.06;;;10.62;56.80
38466;BME280;24244;51.950;5.902;2023-04-06T10:36:24;101506.38;;;10.64;56.72
38466;BME280;24244;51.950;5.902;2023-04-06T10:38:58;101508.69;;;10.67;57.07
38466;BME280;24244;51.950;5.902;2023-04-06T10:41:41;101500.53;;;10.68;56.84
38466;BME280;24244;51.950;5.902;2023-04-06T10:44:17;101496.56;;;10.72;56.95
38466;BME280;24244;51.950;5.902;2023-04-06T10:46:55;101497.03;;;10.76;56.76
38466;BME280;24244;51.950;5.902;2023-04-06T10:49:22;101497.56;;;10.79;56.75
38466;BME280;24244;51.950;5.902;2023-04-06T10:51:54;101498.19;;;10.81;57.15
38466;BME280;24244;51.950;5.902;2023-04-06T10:54:24;101499.84;;;10.82;56.98
38466;BME280;24244;51.950;5.902;2023-04-06T10:56:51;101494.22;;;10.85;57.14
38466;BME280;24244;51.950;5.902;2023-04-06T10:59:20;101495.69;;;10.88;56.94
38466;BME280;24244;51.950;5.902;2023-04-06T11:01:53;101494.53;;;10.90;56.65
38466;BME280;24244;51.950;5.902;2023-04-06T11:04:22;101495.03;;;10.94;56.68
38466;BME280;24244;51.950;5.902;2023-04-06T11:06:51;101486.53;;;10.98;56.85
38466;BME280;24244;51.950;5.902;2023-04-06T11:09:26;101485.16;;;11.03;56.95
38466;BME280;24244;51.950;5.902;2023-04-06T11:11:53;101489.31;;;11.05;56.95
38466;BME280;24244;51.950;5.902;2023-04-06T11:14:21;101489.78;;;11.09;56.90
38466;BME280;24244;51.950;5.902;2023-04-06T11:16:48;101485.81;;;11.13;56.98
38466;BME280;24244;51.950;5.902;2023-04-06T11:19:19;101492.28;;;11.18;56.82
38466;BME280;24244;51.950;5.902;2023-04-06T11:21:47;101489.09;;;11.23;57.04
38466;BME280;24244;51.950;5.902;2023-04-06T11:24:16;101488.75;;;11.26;56.77
38466;BME280;24244;51.950;5.902;2023-04-06T11:26:47;101488.06;;;11.32;57.22
38466;BME280;24244;51.950;5.902;2023-04-06T11:29:34;101486.72;;;11.36;57.07
38466;BME280;24244;51.950;5.902;2023-04-06T11:32:04;101480.88;;;11.41;56.93
38466;BME280;24244;51.950;5.902;2023-04-06T11:34:33;101487.50;;;11.45;56.67
38466;BME280;24244;51.950;5.902;2023-04-06T11:37:06;101478.34;;;11.47;57.12
38466;BME280;24244;51.950;5.902;2023-04-06T11:39:38;101487.44;;;11.53;57.30
38466;BME280;24244;51.950;5.902;2023-04-06T11:42:07;101484.16;;;11.51;57.21
38466;BME280;24244;51.950;5.902;2023-04-06T11:44:37;101497.63;;;11.49;57.66
38466;BME280;24244;51.950;5.902;2023-04-06T11:47:06;101483.00;;;11.45;57.99
38466;BME280;24244;51.950;5.902;2023-04-06T11:49:36;101492.50;;;11.39;58.44
38466;BME280;24244;51.950;5.902;2023-04-06T11:52:15;101494.50;;;11.37;58.86
38466;BME280;24244;51.950;5.902;2023-04-06T11:54:45;101487.72;;;11.35;59.23
38466;BME280;24244;51.950;5.902;2023-04-06T11:57:14;101489.38;;;11.36;59.80
38466;BME280;24244;51.950;5.902;2023-04-06T11:59:41;101484.22;;;11.34;60.19
38466;BME280;24244;51.950;5.902;2023-04-06T12:02:08;101488.88;;;11.32;59.92
38466;BME280;24244;51.950;5.902;2023-04-06T12:04:35;101482.56;;;11.33;60.40
38466;BME280;24244;51.950;5.902;2023-04-06T12:07:03;101486.59;;;11.29;60.87
38466;BME280;24244;51.950;5.902;2023-04-06T12:09:30;101487.91;;;11.25;60.98
38466;BME280;24244;51.950;5.902;2023-04-06T12:11:57;101484.44;;;11.25;61.59
38466;BME280;24244;51.950;5.902;2023-04-06T12:14:26;101483.59;;;11.24;61.32
38466;BME280;24244;51.950;5.902;2023-04-06T12:16:54;101487.25;;;11.23;61.44
38466;BME280;24244;51.950;5.902;2023-04-06T12:19:21;101491.44;;;11.18;61.67
38466;BME280;24244;51.950;5.902;2023-04-06T12:21:55;101485.97;;;11.11;62.02
38466;BME280;24244;51.950;5.902;2023-04-06T12:24:23;101484.69;;;11.07;62.58
38466;BME280;24244;51.950;5.902;2023-04-06T12:26:50;101488.16;;;11.08;62.54
38466;BME280;24244;51.950;5.902;2023-04-06T12:29:26;101487.00;;;11.02;63.02
38466;BME280;24244;51.950;5.902;2023-04-06T12:31:53;101484.84;;;10.97;63.48
38466;BME280;24244;51.950;5.902;2023-04-06T12:34:20;101487.03;;;10.94;63.56
38466;BME280;24244;51.950;5.902;2023-04-06T12:36:47;101481.38;;;10.89;64.15
38466;BME280;24244;51.950;5.902;2023-04-06T12:39:16;101486.72;;;10.81;64.36
38466;BME280;24244;51.950;5.902;2023-04-06T12:41:45;101482.09;;;10.75;64.14
38466;BME280;24244;51.950;5.902;2023-04-06T12:44:12;101480.78;;;10.71;64.36
38466;BME280;24244;51.950;5.902;2023-04-06T12:46:41;101474.94;;;10.67;64.67
38466;BME280;24244;51.950;5.902;2023-04-06T12:49:09;101472.97;;;10.61;65.20
38466;BME280;24244;51.950;5.902;2023-04-06T12:51:37;101477.63;;;10.59;64.86
38466;BME280;24244;51.950;5.902;2023-04-06T12:54:04;101467.50;;;10.54;65.12
38466;BME280;24244;51.950;5.902;2023-04-06T12:56:31;101465.84;;;10.53;65.27
38466;BME280;24244;51.950;5.902;2023-04-06T12:58:58;101465.19;;;10.51;65.02
38466;BME280;24244;51.950;5.902;2023-04-06T13:01:24;101469.50;;;10.52;65.64
38466;BME280;24244;51.950;5.902;2023-04-06T13:03:55;101465.19;;;10.51;65.93
38466;BME280;24244;51.950;5.902;2023-04-06T13:06:22;101465.53;;;10.48;65.76
38466;BME280;24244;51.950;5.902;2023-04-06T13:08:49;101459.53;;;10.46;66.30
38466;BME280;24244;51.950;5.902;2023-04-06T13:11:17;101460.72;;;10.44;66.02
38466;BME280;24244;51.950;5.902;2023-04-06T13:13:53;101461.03;;;10.41;67.11